createdAt,value
2018-04-24T00:01:16.049Z,2.43
2018-04-24T00:03:44.332Z,1.93
2018-04-24T00:06:12.606Z,2.90
2018-04-24T00:08:40.863Z,2.27
2018-04-24T00:11:09.875Z,1.93
2018-04-24T00:13:38.924Z,2.70
2018-04-24T00:16:07.171Z,2.50
2018-04-24T00:18:36.200Z,2.27
2018-04-24T00:21:04.474Z,2.47
2018-04-24T00:23:33.515Z,2.23
2018-04-24T00:26:01.826Z,2.20
2018-04-24T00:28:30.094Z,1.80
2018-04-24T00:30:58.342Z,2.30
2018-04-24T00:33:26.619Z,1.87
2018-04-24T00:35:54.884Z,1.93
2018-04-24T00:38:23.144Z,1.97
2018-04-24T00:40:51.428Z,1.63
2018-04-24T00:43:19.709Z,2.10
2018-04-24T00:45:48.769Z,1.97
2018-04-24T00:48:17.005Z,2.17
2018-04-24T00:50:46.079Z,2.30
2018-04-24T00:53:32.068Z,2.20
2018-04-24T00:56:00.360Z,2.33
2018-04-24T00:58:28.638Z,2.63
2018-04-24T01:00:56.911Z,2.60
2018-04-24T01:03:25.183Z,3.03
2018-04-24T01:05:53.448Z,2.70
2018-04-24T01:08:21.725Z,2.65
2018-04-24T01:10:50.017Z,2.40
2018-04-24T01:13:19.043Z,2.36
2018-04-24T01:15:48.149Z,2.45
2018-04-24T01:18:16.477Z,2.25
2018-04-24T01:20:44.771Z,2.10
2018-04-24T01:23:13.032Z,2.37
2018-04-24T01:25:42.097Z,2.33
2018-04-24T01:28:11.126Z,2.12
2018-04-24T01:30:39.444Z,2.27
2018-04-24T01:33:08.508Z,2.10
2018-04-24T01:35:36.768Z,2.10
2018-04-24T01:38:05.044Z,2.33
2018-04-24T01:40:33.349Z,2.47
2018-04-24T01:43:01.728Z,2.30
2018-04-24T01:45:30.745Z,2.50
2018-04-24T01:47:59.028Z,2.80
2018-04-24T01:50:28.046Z,2.90
2018-04-24T01:52:56.330Z,2.40
2018-04-24T01:55:24.599Z,2.27
2018-04-24T01:57:53.625Z,2.70
2018-04-24T02:00:21.899Z,2.73
2018-04-24T02:02:50.171Z,2.80
2018-04-24T02:05:18.427Z,2.50
2018-04-24T02:07:46.792Z,2.75
2018-04-24T02:10:15.055Z,3.00
2018-04-24T02:12:44.089Z,2.87
2018-04-24T02:15:12.367Z,3.30
2018-04-24T02:17:40.640Z,3.15
2018-04-24T02:20:09.683Z,2.93
2018-04-24T02:22:37.974Z,2.95
2018-04-24T02:25:06.261Z,2.90
2018-04-24T02:27:34.455Z,2.67
2018-04-24T02:30:02.713Z,2.97
2018-04-24T02:32:31.779Z,2.97
2018-04-24T02:35:00.045Z,2.80
2018-04-24T02:37:28.313Z,2.80
2018-04-24T02:39:56.607Z,3.08
2018-04-24T02:42:24.854Z,3.00
2018-04-24T02:44:53.137Z,3.28
2018-04-24T02:47:21.395Z,3.72
2018-04-24T02:49:49.643Z,3.85
2018-04-24T02:52:18.691Z,3.40
2018-04-24T02:54:46.966Z,3.17
2018-04-24T02:57:15.221Z,3.73
2018-04-24T02:59:44.291Z,3.50
2018-04-24T03:02:12.601Z,3.50
2018-04-24T03:04:40.873Z,3.72
2018-04-24T03:07:09.177Z,3.43
2018-04-24T03:09:38.258Z,3.50
2018-04-24T03:12:06.512Z,3.75
2018-04-24T03:14:35.531Z,3.62
2018-04-24T03:17:03.792Z,3.30
2018-04-24T03:19:32.057Z,3.50
2018-04-24T03:22:00.306Z,4.17
2018-04-24T03:24:28.580Z,3.85
2018-04-24T03:26:57.678Z,3.33
2018-04-24T03:29:25.853Z,3.37
2018-04-24T03:31:54.131Z,3.60
2018-04-24T03:34:22.409Z,3.60
2018-04-24T03:36:50.673Z,4.00
2018-04-24T03:39:18.955Z,3.92
2018-04-24T03:41:47.259Z,4.10
2018-04-24T03:44:15.510Z,4.00
2018-04-24T03:46:44.583Z,3.80
2018-04-24T03:49:13.040Z,4.03
2018-04-24T03:51:41.308Z,3.87
2018-04-24T03:54:10.444Z,3.90
2018-04-24T03:56:38.729Z,4.47
2018-04-24T03:59:06.975Z,3.78
2018-04-24T04:01:35.427Z,4.63
2018-04-24T04:04:03.677Z,5.00
2018-04-24T04:06:32.809Z,4.83
2018-04-24T04:09:01.100Z,4.35
2018-04-24T04:11:30.114Z,4.80
2018-04-24T04:13:58.392Z,4.43
2018-04-24T04:16:26.654Z,4.80
2018-04-24T04:19:13.422Z,4.35
2018-04-24T04:21:59.565Z,5.20
2018-04-24T04:24:47.727Z,4.57
2018-04-24T04:27:16.039Z,4.68
2018-04-24T04:29:45.142Z,4.18
2018-04-24T04:32:13.463Z,4.17
2018-04-24T04:34:42.505Z,4.00
2018-04-24T04:37:10.763Z,4.20
2018-04-24T04:39:39.037Z,3.97
2018-04-24T04:42:08.080Z,4.40
2018-04-24T04:44:36.360Z,3.90
2018-04-24T04:47:04.650Z,3.57
2018-04-24T04:49:32.936Z,4.30
2018-04-24T04:52:01.186Z,4.03
2018-04-24T04:54:29.448Z,4.05
2018-04-24T04:56:57.719Z,4.07
2018-04-24T04:59:25.967Z,3.80
2018-04-24T05:01:55.045Z,3.70
2018-04-24T05:04:23.350Z,4.12
2018-04-24T05:06:51.621Z,4.10
2018-04-24T05:09:19.883Z,3.87
2018-04-24T05:11:48.171Z,3.62
2018-04-24T05:14:16.577Z,3.20
2018-04-24T05:16:44.957Z,3.35
2018-04-24T05:19:13.247Z,3.60
2018-04-24T05:21:41.504Z,3.70
2018-04-24T05:24:10.546Z,3.67
2018-04-24T05:26:38.894Z,3.30
2018-04-24T05:29:07.854Z,3.87
2018-04-24T05:31:36.104Z,3.60
2018-04-24T05:34:05.531Z,3.60
2018-04-24T05:36:33.792Z,3.50
2018-04-24T05:39:02.056Z,3.40
2018-04-24T05:41:30.324Z,3.50
2018-04-24T05:43:58.580Z,3.37
2018-04-24T05:46:27.611Z,3.45
2018-04-24T05:48:55.896Z,3.85
2018-04-24T05:51:24.151Z,3.97
2018-04-24T05:53:52.419Z,3.43
2018-04-24T05:56:20.708Z,3.75
2018-04-24T05:58:49.703Z,3.00
2018-04-24T06:01:17.978Z,3.50
2018-04-24T06:03:46.254Z,3.60
2018-04-24T06:06:14.782Z,3.20
2018-04-24T06:08:43.124Z,3.50
2018-04-24T06:11:11.364Z,3.43
2018-04-24T06:13:39.638Z,3.33
2018-04-24T06:16:07.899Z,3.35
2018-04-24T06:18:36.945Z,4.10
2018-04-24T06:21:05.216Z,3.90
2018-04-24T06:23:33.467Z,3.87
2018-04-24T06:26:02.519Z,3.35
2018-04-24T06:28:30.890Z,3.70
2018-04-24T06:30:59.099Z,3.87
2018-04-24T06:33:27.360Z,3.55
2018-04-24T06:35:56.455Z,3.40
2018-04-24T06:38:24.670Z,3.93
2018-04-24T06:40:52.947Z,4.22
2018-04-24T06:43:21.989Z,3.67
2018-04-24T06:45:50.239Z,3.30
2018-04-24T06:48:19.305Z,3.30
2018-04-24T06:50:47.578Z,3.85
2018-04-24T06:53:15.856Z,3.63
2018-04-24T06:55:44.162Z,3.87
2018-04-24T06:58:12.423Z,3.63
2018-04-24T07:00:40.736Z,3.60
2018-04-24T07:03:09.745Z,3.72
2018-04-24T07:05:38.001Z,3.72
2018-04-24T07:08:07.017Z,3.87
2018-04-24T07:10:35.288Z,3.90
2018-04-24T07:13:04.362Z,3.50
2018-04-24T07:15:32.608Z,3.77
2018-04-24T07:18:00.879Z,3.90
2018-04-24T07:20:29.916Z,3.53
2018-04-24T07:22:58.167Z,3.60
2018-04-24T07:25:26.455Z,3.53
2018-04-24T07:27:54.711Z,3.70
2018-04-24T07:30:22.985Z,3.60
2018-04-24T07:32:51.296Z,3.67
2018-04-24T07:35:20.280Z,4.00
2018-04-24T07:37:48.663Z,3.60
2018-04-24T07:40:17.055Z,3.87
2018-04-24T07:42:45.328Z,3.70
2018-04-24T07:45:14.360Z,4.13
2018-04-24T07:47:42.846Z,4.07
2018-04-24T07:50:11.116Z,3.53
2018-04-24T07:52:40.140Z,4.30
2018-04-24T07:55:08.447Z,3.87
2018-04-24T07:57:36.703Z,4.27
2018-04-24T08:00:04.986Z,3.50
2018-04-24T08:02:34.032Z,4.03
2018-04-24T08:05:02.298Z,3.90
2018-04-24T08:07:31.315Z,4.70
2018-04-24T08:09:59.588Z,5.30
2018-04-24T08:12:28.619Z,4.77
2018-04-24T08:14:56.872Z,4.67
2018-04-24T08:17:25.915Z,4.78
2018-04-24T08:19:54.171Z,4.93
2018-04-24T08:22:23.218Z,5.43
2018-04-24T08:24:51.488Z,4.60
2018-04-24T08:27:19.757Z,5.27
2018-04-24T08:29:48.016Z,4.77
2018-04-24T08:32:16.292Z,5.00
2018-04-24T08:34:44.572Z,5.53
2018-04-24T08:37:12.880Z,5.43
2018-04-24T08:39:41.172Z,5.20
2018-04-24T08:42:09.438Z,4.87
2018-04-24T08:44:37.702Z,5.27
2018-04-24T08:47:06.732Z,5.27
2018-04-24T08:49:35.118Z,5.40
2018-04-24T08:52:03.366Z,5.40
2018-04-24T08:54:31.644Z,5.90
2018-04-24T08:56:59.916Z,5.53
2018-04-24T08:59:28.188Z,6.83
2018-04-24T09:01:56.505Z,7.03
2018-04-24T09:04:25.151Z,6.90
2018-04-24T09:06:54.215Z,8.13
2018-04-24T09:09:22.502Z,9.40
2018-04-24T09:11:50.759Z,8.97
2018-04-24T09:14:19.014Z,8.02
2018-04-24T09:16:47.303Z,8.70
2018-04-24T09:19:15.562Z,9.10
2018-04-24T09:21:43.831Z,8.95
2018-04-24T09:24:12.141Z,8.32
2018-04-24T09:26:40.396Z,8.57
2018-04-24T09:29:08.661Z,8.57
2018-04-24T09:31:43.633Z,8.30
2018-04-24T09:34:11.897Z,8.07
2018-04-24T09:36:40.923Z,8.47
2018-04-24T09:39:09.208Z,7.93
2018-04-24T09:41:37.473Z,8.37
2018-04-24T09:44:05.726Z,7.17
2018-04-24T09:46:34.006Z,7.93
2018-04-24T09:49:02.285Z,8.40
2018-04-24T09:51:31.341Z,7.40
2018-04-24T09:53:59.623Z,8.02
2018-04-24T09:56:27.889Z,7.80
2018-04-24T09:58:56.139Z,7.90
2018-04-24T10:01:27.347Z,7.95
2018-04-24T10:03:55.611Z,7.03
2018-04-24T10:06:24.715Z,7.43
2018-04-24T10:08:52.997Z,8.03
2018-04-24T10:11:21.260Z,7.50
2018-04-24T10:13:50.316Z,7.63
2018-04-24T10:16:18.581Z,8.50
2018-04-24T10:18:47.604Z,7.30
2018-04-24T10:21:15.867Z,7.93
2018-04-24T10:23:44.992Z,8.03
2018-04-24T10:26:13.547Z,7.60
2018-04-24T10:28:41.813Z,8.40
2018-04-24T10:31:10.094Z,8.00
2018-04-24T10:33:38.349Z,7.77
2018-04-24T10:36:07.394Z,7.87
2018-04-24T10:38:35.673Z,8.80
2018-04-24T10:41:03.923Z,8.20
2018-04-24T10:43:32.996Z,8.40
2018-04-24T10:46:01.265Z,7.77
2018-04-24T10:48:29.519Z,7.63
2018-04-24T10:50:58.536Z,7.53
2018-04-24T10:53:26.816Z,7.13
2018-04-24T10:55:55.880Z,7.47
2018-04-24T10:58:24.100Z,7.77
2018-04-24T11:00:52.394Z,7.37
2018-04-24T11:03:20.656Z,7.33
2018-04-24T11:05:48.913Z,7.70
2018-04-24T11:08:17.188Z,7.90
2018-04-24T11:10:45.461Z,8.43
2018-04-24T11:13:14.547Z,7.27
2018-04-24T11:15:42.774Z,7.60
2018-04-24T11:18:11.049Z,7.73
2018-04-24T11:20:40.093Z,7.23
2018-04-24T11:23:08.372Z,7.20
2018-04-24T11:25:36.635Z,7.30
2018-04-24T11:28:05.663Z,7.80
2018-04-24T11:30:33.942Z,7.77
2018-04-24T11:33:02.195Z,7.37
2018-04-24T11:35:30.470Z,8.07
2018-04-24T11:37:58.740Z,7.30
2018-04-24T11:40:27.000Z,7.90
2018-04-24T11:42:55.291Z,7.83
2018-04-24T11:45:23.586Z,7.93
2018-04-24T11:47:51.837Z,6.77
2018-04-24T11:50:20.115Z,7.43
2018-04-24T11:52:49.155Z,7.77
2018-04-24T11:55:18.197Z,7.43
2018-04-24T11:57:46.461Z,7.70
2018-04-24T12:00:15.516Z,7.53
2018-04-24T12:02:43.891Z,7.30
2018-04-24T12:05:12.056Z,7.60
2018-04-24T12:07:40.341Z,7.90
2018-04-24T12:10:09.430Z,7.77
2018-04-24T12:12:37.750Z,7.73
2018-04-24T12:15:06.835Z,8.07
2018-04-24T12:17:35.109Z,7.67
2018-04-24T12:20:03.370Z,7.53
2018-04-24T12:22:31.645Z,7.63
2018-04-24T12:24:59.927Z,8.48
2018-04-24T12:27:28.176Z,7.93
2018-04-24T12:29:56.470Z,8.55
2018-04-24T12:32:24.716Z,8.67
2018-04-24T12:34:52.977Z,8.20
2018-04-24T12:37:21.251Z,8.70
2018-04-24T12:39:50.317Z,8.43
2018-04-24T12:42:18.605Z,8.87
2018-04-24T12:44:46.879Z,9.37
2018-04-24T12:47:15.199Z,8.50
2018-04-24T12:49:43.497Z,9.97
2018-04-24T12:52:11.775Z,9.37
2018-04-24T12:54:40.118Z,9.80
2018-04-24T12:57:09.153Z,10.13
2018-04-24T12:59:37.436Z,10.47
2018-04-24T13:02:05.697Z,10.13
2018-04-24T13:04:33.965Z,10.30
2018-04-24T13:07:02.269Z,9.30
2018-04-24T13:09:31.321Z,10.47
2018-04-24T13:11:59.588Z,10.97
2018-04-24T13:14:27.868Z,10.17
2018-04-24T13:16:56.150Z,10.20
2018-04-24T13:19:25.190Z,10.03
2018-04-24T13:21:53.474Z,10.70
2018-04-24T13:24:21.755Z,10.20
2018-04-24T13:26:50.789Z,10.63
2018-04-24T13:29:19.060Z,10.53
2018-04-24T13:31:47.350Z,9.80
2018-04-24T13:34:15.779Z,10.27
2018-04-24T13:36:44.081Z,10.17
2018-04-24T13:39:12.341Z,10.83
2018-04-24T13:41:40.620Z,9.97
2018-04-24T13:44:08.893Z,10.00
2018-04-24T13:46:37.163Z,10.00
2018-04-24T13:49:06.199Z,10.00
2018-04-24T13:51:34.501Z,10.13
2018-04-24T13:54:02.768Z,10.13
2018-04-24T13:56:31.046Z,10.20
2018-04-24T13:59:00.076Z,10.67
2018-04-24T14:01:28.342Z,10.33
2018-04-24T14:03:57.433Z,9.10
2018-04-24T14:06:25.742Z,8.70
2018-04-24T14:08:53.969Z,9.20
2018-04-24T14:11:22.224Z,9.90
2018-04-24T14:13:51.278Z,9.30
2018-04-24T14:16:19.530Z,8.80
2018-04-24T14:18:47.969Z,9.23
2018-04-24T14:21:16.244Z,9.27
2018-04-24T14:23:44.495Z,9.90
2018-04-24T14:26:13.600Z,8.97
2018-04-24T14:28:42.632Z,9.37
2018-04-24T14:31:10.911Z,10.10
2018-04-24T14:33:39.171Z,10.30
2018-04-24T14:36:07.455Z,10.27
2018-04-24T14:38:35.723Z,10.20
2018-04-24T14:41:04.026Z,10.60
2018-04-24T14:43:32.304Z,10.40
2018-04-24T14:46:00.629Z,10.50
2018-04-24T14:48:29.653Z,10.63
2018-04-24T14:50:58.727Z,11.10
2018-04-24T14:53:26.980Z,10.80
2018-04-24T14:55:55.279Z,10.10
2018-04-24T14:58:23.603Z,10.27
2018-04-24T15:00:51.808Z,10.30
2018-04-24T15:03:20.087Z,10.38
2018-04-24T15:05:48.402Z,10.77
2018-04-24T15:08:17.508Z,10.50
2018-04-24T15:10:46.549Z,10.47
2018-04-24T15:13:14.839Z,10.80
2018-04-24T15:15:43.094Z,9.80
2018-04-24T15:18:12.123Z,9.33
2018-04-24T15:20:40.420Z,9.90
2018-04-24T15:23:08.703Z,9.82
2018-04-24T15:25:36.973Z,10.37
2018-04-24T15:28:06.029Z,10.00
2018-04-24T15:30:34.271Z,9.40
2018-04-24T15:33:03.288Z,9.77
2018-04-24T15:35:31.560Z,8.87
2018-04-24T15:37:59.830Z,8.23
2018-04-24T15:40:28.085Z,9.37
2018-04-24T15:42:56.411Z,9.27
2018-04-24T15:45:24.673Z,8.70
2018-04-24T15:47:52.927Z,9.13
2018-04-24T15:50:21.202Z,8.73
2018-04-24T15:52:50.220Z,9.13
2018-04-24T15:55:18.475Z,9.20
2018-04-24T15:57:46.762Z,8.60
2018-04-24T16:00:15.046Z,8.87
2018-04-24T16:02:43.334Z,8.27
2018-04-24T16:05:12.391Z,8.60
2018-04-24T16:07:40.681Z,8.37
2018-04-24T16:10:08.946Z,8.73
2018-04-24T16:12:37.215Z,8.10
2018-04-24T16:15:05.506Z,8.40
2018-04-24T16:17:33.771Z,8.13
2018-04-24T16:20:02.040Z,7.80
2018-04-24T16:22:30.308Z,7.37
2018-04-24T16:24:59.326Z,7.10
2018-04-24T16:27:27.592Z,7.70
2018-04-24T16:29:56.710Z,8.00
2018-04-24T16:32:24.875Z,7.97
2018-04-24T16:34:53.143Z,7.40
2018-04-24T16:37:21.421Z,8.33
2018-04-24T16:39:49.667Z,8.23
2018-04-24T16:42:17.980Z,8.13
2018-04-24T16:44:46.320Z,7.10
2018-04-24T16:47:15.467Z,7.07
2018-04-24T16:49:44.520Z,7.70
2018-04-24T16:52:12.802Z,7.53
2018-04-24T16:54:41.064Z,7.93
2018-04-24T16:57:09.332Z,8.57
2018-04-24T16:59:38.364Z,8.20
2018-04-24T17:02:06.675Z,8.60
2018-04-24T17:04:34.945Z,8.03
2018-04-24T17:07:03.209Z,7.23
2018-04-24T17:09:32.340Z,8.37
2018-04-24T17:12:00.607Z,8.83
2018-04-24T17:14:29.633Z,7.87
2018-04-24T17:16:57.900Z,8.27
2018-04-24T17:19:27.023Z,8.17
2018-04-24T17:21:55.327Z,8.07
2018-04-24T17:24:23.594Z,8.93
2018-04-24T17:26:52.636Z,8.87
2018-04-24T17:29:20.920Z,8.10
2018-04-24T17:31:49.921Z,8.60
2018-04-24T17:34:18.975Z,8.90
2018-04-24T17:36:47.255Z,8.50
2018-04-24T17:39:15.552Z,9.32
2018-04-24T17:41:43.882Z,9.80
2018-04-24T17:44:12.908Z,8.13
2018-04-24T17:46:42.049Z,8.97
2018-04-24T17:49:10.260Z,8.73
2018-04-24T17:51:38.530Z,9.00
2018-04-24T17:54:06.795Z,8.20
2018-04-24T17:56:35.095Z,9.07
2018-04-24T17:59:03.356Z,8.43
2018-04-24T18:01:32.407Z,7.60
2018-04-24T18:04:00.668Z,8.37
2018-04-24T18:06:28.915Z,7.20
2018-04-24T18:08:57.188Z,7.07
2018-04-24T18:11:25.497Z,8.17
2018-04-24T18:13:53.753Z,8.13
2018-04-24T18:16:22.007Z,7.33
2018-04-24T18:18:51.058Z,7.63
2018-04-24T18:21:24.571Z,7.57
2018-04-24T18:23:53.177Z,6.20
2018-04-24T18:26:21.425Z,6.53
2018-04-24T18:28:50.470Z,7.97
2018-04-24T18:31:18.790Z,7.60
2018-04-24T18:33:47.082Z,6.53
2018-04-24T18:36:15.456Z,9.20
2018-04-24T18:38:43.806Z,7.70
2018-04-24T18:41:12.142Z,7.30
2018-04-24T18:43:40.437Z,6.97
2018-04-24T18:46:08.716Z,8.18
2018-04-24T18:48:36.981Z,6.53
2018-04-24T18:51:05.257Z,6.73
2018-04-24T18:53:33.551Z,8.10
2018-04-24T18:56:01.799Z,6.27
2018-04-24T18:58:30.080Z,6.60
2018-04-24T19:00:58.382Z,7.40
2018-04-24T19:03:27.421Z,6.87
2018-04-24T19:05:55.688Z,7.83
2018-04-24T19:08:24.857Z,7.27
2018-04-24T19:10:53.145Z,7.93
2018-04-24T19:13:21.408Z,7.93
2018-04-24T19:15:49.719Z,7.63
2018-04-24T19:18:17.999Z,7.13
2018-04-24T19:20:46.263Z,8.00
2018-04-24T19:23:14.649Z,8.17
2018-04-24T19:25:43.792Z,9.53
2018-04-24T19:28:12.079Z,8.17
2018-04-24T19:30:40.458Z,8.30
2018-04-24T19:33:08.742Z,8.00
2018-04-24T19:35:37.018Z,7.77
2018-04-24T19:38:06.047Z,8.13
2018-04-24T19:40:39.962Z,8.40
2018-04-24T19:43:08.253Z,8.57
2018-04-24T19:45:36.504Z,8.52
2018-04-24T19:48:04.803Z,7.63
2018-04-24T19:50:33.879Z,8.47
2018-04-24T19:53:02.238Z,8.17
2018-04-24T19:55:30.525Z,8.03
2018-04-24T19:57:58.788Z,8.40
2018-04-24T20:00:27.821Z,8.03
2018-04-24T20:02:56.110Z,8.07
2018-04-24T20:05:25.222Z,8.37
2018-04-24T20:07:53.518Z,8.10
2018-04-24T20:10:21.809Z,8.47
2018-04-24T20:12:50.114Z,8.70
2018-04-24T20:15:19.627Z,8.53
2018-04-24T20:17:47.897Z,8.30
2018-04-24T20:20:16.197Z,8.87
2018-04-24T20:22:44.490Z,8.97
2018-04-24T20:25:12.920Z,8.57
2018-04-24T20:27:41.164Z,8.97
2018-04-24T20:30:09.454Z,9.03
2018-04-24T20:32:37.755Z,8.90
2018-04-24T20:35:06.936Z,9.40
2018-04-24T20:37:35.967Z,8.90
2018-04-24T20:40:04.256Z,8.13
2018-04-24T20:42:33.315Z,8.53
2018-04-24T20:45:01.577Z,9.53
2018-04-24T20:47:29.872Z,8.53
2018-04-24T20:49:58.140Z,8.73
2018-04-24T20:52:26.428Z,8.53
2018-04-24T20:54:54.697Z,8.67
2018-04-24T20:57:23.723Z,9.03
2018-04-24T20:59:53.242Z,8.88
2018-04-24T21:02:21.511Z,9.02
2018-04-24T21:04:49.826Z,8.43
2018-04-24T21:07:18.112Z,9.10
2018-04-24T21:09:46.675Z,9.30
2018-04-24T21:12:14.983Z,9.30
2018-04-24T21:14:44.111Z,8.93
2018-04-24T21:17:12.398Z,8.93
2018-04-24T21:19:41.447Z,8.80
2018-04-24T21:22:09.700Z,8.90
2018-04-24T21:24:37.953Z,9.07
2018-04-24T21:27:06.280Z,9.17
2018-04-24T21:29:34.837Z,9.20
2018-04-24T21:32:03.095Z,9.60
2018-04-24T21:34:31.396Z,9.13
2018-04-24T21:36:59.672Z,9.90
2018-04-24T21:39:28.045Z,9.57
2018-04-24T21:41:56.308Z,9.73
2018-04-24T21:44:25.341Z,9.80
2018-04-24T21:46:53.599Z,10.13
2018-04-24T21:49:22.652Z,10.05
2018-04-24T21:51:50.919Z,9.63
2018-04-24T21:54:19.955Z,10.27
2018-04-24T21:56:48.240Z,11.20
2018-04-24T21:59:16.545Z,10.07
2018-04-24T22:01:44.908Z,11.33
2018-04-24T22:04:13.120Z,10.52
2018-04-24T22:06:41.395Z,10.27
2018-04-24T22:09:09.666Z,10.00
2018-04-24T22:11:38.781Z,10.20
2018-04-24T22:14:07.890Z,10.53
2018-04-24T22:16:36.187Z,10.90
2018-04-24T22:19:04.614Z,11.33
2018-04-24T22:21:32.967Z,10.33
2018-04-24T22:24:01.255Z,10.77
2018-04-24T22:26:29.543Z,10.57
2018-04-24T22:28:58.560Z,10.67
2018-04-24T22:31:26.845Z,10.27
2018-04-24T22:33:55.143Z,10.37
2018-04-24T22:36:23.426Z,10.40
2018-04-24T22:38:51.709Z,10.45
2018-04-24T22:41:20.803Z,10.90
2018-04-24T22:43:49.867Z,11.37
2018-04-24T22:46:18.228Z,10.37
2018-04-24T22:48:46.519Z,10.25
2018-04-24T22:51:14.787Z,10.87
2018-04-24T22:53:43.123Z,11.00
2018-04-24T22:56:11.488Z,11.47
2018-04-24T22:58:39.755Z,10.80
2018-04-24T23:01:08.792Z,10.27
2018-04-24T23:03:37.081Z,11.33
2018-04-24T23:06:05.374Z,9.90
2018-04-24T23:08:33.628Z,10.05
2018-04-24T23:11:20.488Z,9.93
2018-04-24T23:14:06.389Z,10.13
2018-04-24T23:16:52.816Z,10.17
2018-04-24T23:19:38.541Z,10.83
2018-04-24T23:22:06.009Z,9.23
2018-04-24T23:24:34.287Z,9.13
2018-04-24T23:27:02.667Z,8.37
2018-04-24T23:29:30.962Z,8.40
2018-04-24T23:31:59.221Z,8.83
2018-04-24T23:34:28.251Z,7.57
2018-04-24T23:36:56.541Z,7.00
2018-04-24T23:39:25.659Z,7.90
2018-04-24T23:41:53.905Z,7.63
2018-04-24T23:44:22.169Z,7.27
2018-04-24T23:46:50.421Z,7.50
2018-04-24T23:49:18.687Z,7.90
2018-04-24T23:51:47.779Z,6.73
2018-04-24T23:54:16.052Z,7.27
2018-04-24T23:56:44.343Z,6.43
2018-04-24T23:59:12.625Z,6.90
